Time;durP1;ratioP1;P1;durP2;ratioP2;P2;SDS_P1;SDS_P2;PMS_P1;PMS_P2;Temp;Humidity;BMP_temperature;BMP_pressure;BME280_temperature;BME280_humidity;BME280_pressure;Samples;Min_cycle;Max_cycle;Signal;HPM_P1;HPM_P2
2024/04/01 00:01:32;;;;;;;12.85;7.82;;;10.50;99.90;;;;;;5127677;27;20041;-84
2024/04/01 00:04:01;;;;;;;14.30;7.60;;;10.50;99.90;;;;;;5125368;27;20496;-84
2024/04/01 00:06:27;;;;;;;12.23;7.32;;;10.40;99.90;;;;;;5137180;27;20035;-83
2024/04/01 00:08:54;;;;;;;11.65;7.35;;;10.50;99.90;;;;;;5137444;27;20404;-84
2024/04/01 00:11:22;;;;;;;15.60;7.30;;;10.40;99.90;;;;;;5127551;28;20031;-84
2024/04/01 00:13:49;;;;;;;12.52;7.28;;;10.30;99.90;;;;;;5143703;28;20444;-84
2024/04/01 00:16:16;;;;;;;13.75;7.70;;;10.30;99.90;;;;;;5140302;27;20053;-84
2024/04/01 00:18:43;;;;;;;12.10;8.27;;;10.30;99.90;;;;;;5119887;27;20043;-84
2024/04/01 00:21:09;;;;;;;12.63;7.43;;;10.20;99.90;;;;;;5137269;27;20088;-84
2024/04/01 00:23:39;;;;;;;12.65;7.28;;;10.30;99.90;;;;;;5126298;28;20050;-84
2024/04/01 00:26:06;;;;;;;11.02;6.90;;;10.30;99.90;;;;;;5135137;27;20039;-84
2024/04/01 00:28:32;;;;;;;12.02;6.40;;;10.20;99.90;;;;;;5147342;27;20052;-84
2024/04/01 00:31:00;;;;;;;12.00;6.60;;;10.20;99.90;;;;;;5136940;27;20035;-84
2024/04/01 00:33:26;;;;;;;11.52;7.07;;;10.10;99.90;;;;;;5135023;27;20040;-84
2024/04/01 00:35:53;;;;;;;10.85;6.55;;;10.10;99.90;;;;;;5136588;27;20120;-84
2024/04/01 00:38:20;;;;;;;12.13;6.30;;;10.20;99.90;;;;;;5131308;27;20035;-84
2024/04/01 00:40:46;;;;;;;14.13;6.80;;;10.10;99.90;;;;;;5123878;27;20043;-84
2024/04/01 00:43:13;;;;;;;10.50;6.03;;;11.00;99.90;;;;;;5129669;27;20027;-85
2024/04/01 00:45:45;;;;;;;13.15;6.68;;;10.20;99.90;;;;;;5129067;28;20032;-84
2024/04/01 00:48:13;;;;;;;11.85;6.40;;;10.70;99.90;;;;;;5136246;27;20469;-84
2024/04/01 00:50:46;;;;;;;10.38;5.70;;;10.40;99.90;;;;;;5136851;27;20078;-84
2024/04/01 00:53:14;;;;;;;18.95;6.30;;;10.30;99.90;;;;;;5136743;27;20045;-84
2024/04/01 00:55:43;;;;;;;11.80;6.00;;;10.30;99.90;;;;;;5129987;27;20060;-84
2024/04/01 00:58:11;;;;;;;11.63;5.75;;;10.30;99.90;;;;;;5135157;27;20039;-84
2024/04/01 01:00:38;;;;;;;14.07;6.30;;;10.30;99.90;;;;;;5149936;28;20058;-84
2024/04/01 01:03:07;;;;;;;12.35;5.70;;;10.30;99.90;;;;;;5129639;28;20047;-84
2024/04/01 01:05:35;;;;;;;9.57;5.35;;;10.30;99.90;;;;;;5116313;28;20039;-84
2024/04/01 01:08:01;;;;;;;11.25;5.60;;;10.40;99.90;;;;;;5134427;27;20043;-84
2024/04/01 01:10:30;;;;;;;13.50;6.30;;;10.10;99.90;;;;;;5127603;27;20039;-84
2024/04/01 01:12:57;;;;;;;9.23;5.43;;;10.10;99.90;;;;;;5136404;27;20118;-84
2024/04/01 01:15:26;;;;;;;9.50;5.05;;;10.40;99.90;;;;;;5148610;27;20043;-84
2024/04/01 01:17:53;;;;;;;13.05;5.82;;;9.90;99.90;;;;;;5135798;27;20039;-84
2024/04/01 01:20:20;;;;;;;8.35;5.05;;;9.90;99.90;;;;;;5148129;27;20504;-85
2024/04/01 01:22:46;;;;;;;10.23;5.60;;;9.90;99.90;;;;;;5130481;28;20080;-84
2024/04/01 01:25:13;;;;;;;9.10;5.50;;;9.80;99.90;;;;;;5128267;27;20039;-84
2024/04/01 01:27:41;;;;;;;11.63;5.78;;;9.80;99.90;;;;;;5135852;27;20039;-84
2024/04/01 01:30:15;;;;;;;10.68;5.15;;;9.80;99.90;;;;;;5122435;28;20055;-84
2024/04/01 01:32:49;;;;;;;9.98;5.57;;;10.00;99.90;;;;;;5127435;27;20077;-84
2024/04/01 01:35:21;;;;;;;10.43;5.30;;;9.60;99.90;;;;;;5130909;27;20380;-84
2024/04/01 01:37:52;;;;;;;13.32;5.90;;;9.60;99.90;;;;;;5126625;28;20040;-84
2024/04/01 01:40:19;;;;;;;14.63;5.95;;;9.50;99.90;;;;;;5132713;27;20524;-84
2024/04/01 01:42:46;;;;;;;11.05;5.85;;;9.50;99.90;;;;;;5130293;28;20040;-84
2024/04/01 01:45:13;;;;;;;10.88;5.90;;;9.50;99.90;;;;;;5132408;27;20035;-84
2024/04/01 01:47:40;;;;;;;9.70;5.88;;;9.50;99.90;;;;;;5135644;27;20560;-84
2024/04/01 01:50:10;;;;;;;10.02;5.85;;;9.50;99.90;;;;;;5129353;27;20069;-84
2024/04/01 01:52:39;;;;;;;14.95;5.97;;;9.50;99.90;;;;;;5135301;27;20039;-84
2024/04/01 01:55:06;;;;;;;8.63;5.28;;;9.40;99.90;;;;;;5130612;28;20241;-84
2024/04/01 01:57:34;;;;;;;12.50;5.93;;;9.40;99.90;;;;;;5127329;27;20035;-84
2024/04/01 02:00:05;;;;;;;10.32;5.45;;;9.40;99.90;;;;;;5134209;27;20043;-84
2024/04/01 02:02:33;;;;;;;9.38;5.70;;;9.30;99.90;;;;;;5123459;28;20035;-84
2024/04/01 02:04:59;;;;;;;10.95;5.85;;;9.30;99.90;;;;;;5130840;27;20046;-84
2024/04/01 02:07:26;;;;;;;10.60;5.97;;;9.30;99.90;;;;;;5123327;28;20040;-84
2024/04/01 02:09:52;;;;;;;9.48;5.68;;;9.30;99.90;;;;;;5149502;27;20426;-84
2024/04/01 02:12:19;;;;;;;16.27;6.78;;;9.20;99.90;;;;;;5134878;27;20035;-84
2024/04/01 02:14:46;;;;;;;14.70;6.28;;;9.20;99.90;;;;;;5134578;27;20135;-84
2024/04/01 02:17:13;;;;;;;13.93;6.15;;;9.20;99.90;;;;;;5135128;27;20032;-84
2024/04/01 02:19:45;;;;;;;12.20;6.38;;;9.20;99.90;;;;;;5122936;27;20054;-84
2024/04/01 02:22:13;;;;;;;11.30;6.20;;;9.10;99.90;;;;;;5148700;27;20035;-84
2024/04/01 02:24:43;;;;;;;11.15;6.53;;;9.10;99.90;;;;;;5124121;27;20067;-84
2024/04/01 02:27:10;;;;;;;13.90;7.43;;;9.20;99.90;;;;;;5135074;27;20031;-84
2024/04/01 02:29:38;;;;;;;12.30;6.88;;;9.20;99.90;;;;;;5134564;27;20070;-84
2024/04/01 02:32:06;;;;;;;14.68;7.13;;;9.40;99.90;;;;;;5127398;27;20480;-84
2024/04/01 02:34:33;;;;;;;13.43;7.03;;;9.20;99.90;;;;;;5132827;27;20590;-84
2024/04/01 02:37:00;;;;;;;15.00;6.97;;;9.20;99.90;;;;;;5146767;27;20034;-84
2024/04/01 02:39:26;;;;;;;13.45;7.13;;;9.20;99.90;;;;;;5129277;28;20031;-84
2024/04/01 02:41:53;;;;;;;14.18;7.15;;;9.10;99.90;;;;;;5121592;27;20070;-84
2024/04/01 02:44:19;;;;;;;15.10;8.18;;;9.10;99.90;;;;;;5126134;28;20419;-84
2024/04/01 02:46:46;;;;;;;14.68;7.53;;;9.10;99.90;;;;;;5122981;28;20111;-84
2024/04/01 02:49:13;;;;;;;15.27;7.30;;;9.10;99.90;;;;;;5120789;27;20063;-84
2024/04/01 02:51:40;;;;;;;13.13;8.13;;;9.10;99.90;;;;;;5132029;27;20380;-84
2024/04/01 02:54:06;;;;;;;13.43;7.53;;;9.10;99.90;;;;;;5134628;27;20038;-84
2024/04/01 02:56:33;;;;;;;15.82;8.40;;;9.10;99.90;;;;;;5134134;27;20501;-84
2024/04/01 02:59:05;;;;;;;13.95;7.90;;;9.10;99.90;;;;;;5140761;27;20540;-84
2024/04/01 03:01:31;;;;;;;13.27;7.55;;;9.10;99.90;;;;;;5133461;27;20031;-84
2024/04/01 03:04:01;;;;;;;13.63;8.05;;;9.70;99.90;;;;;;5134286;27;20457;-84
2024/04/01 03:06:29;;;;;;;16.15;8.80;;;9.00;99.90;;;;;;5121907;27;20066;-84
2024/04/01 03:08:56;;;;;;;15.82;8.85;;;9.00;99.90;;;;;;5132491;27;20453;-84
2024/04/01 03:11:23;;;;;;;16.20;8.48;;;9.60;99.90;;;;;;5130192;28;20042;-84
2024/04/01 03:13:49;;;;;;;16.75;9.35;;;8.90;99.90;;;;;;5129802;27;20035;-84
2024/04/01 03:16:18;;;;;;;17.02;8.77;;;9.70;99.90;;;;;;5132742;27;20035;-84
2024/04/01 03:18:45;;;;;;;21.27;9.93;;;8.90;99.90;;;;;;5121434;27;20082;-84
2024/04/01 03:21:12;;;;;;;21.15;10.65;;;8.90;99.90;;;;;;5133505;27;20031;-84
2024/04/01 03:23:38;;;;;;;19.05;9.73;;;8.90;99.90;;;;;;5119391;28;20035;-84
2024/04/01 03:26:06;;;;;;;17.80;9.68;;;9.00;99.90;;;;;;5120999;28;20396;-84
2024/04/01 03:28:32;;;;;;;18.70;10.15;;;8.90;99.90;;;;;;5122689;28;20051;-84
2024/04/01 03:31:07;;;;;;;19.58;9.60;;;8.90;99.90;;;;;;5126224;28;20050;-84
2024/04/01 03:33:34;;;;;;;20.05;10.98;;;8.90;99.90;;;;;;5113348;28;20051;-84
2024/04/01 03:36:01;;;;;;;22.00;10.57;;;8.90;99.90;;;;;;5137404;28;20035;-84
2024/04/01 03:38:27;;;;;;;17.38;10.60;;;8.90;99.90;;;;;;5125880;28;20573;-84
2024/04/01 03:40:54;;;;;;;22.33;11.93;;;8.80;99.90;;;;;;5134418;28;20096;-84
2024/04/01 03:43:21;;;;;;;18.45;10.77;;;8.90;99.90;;;;;;5141133;28;20035;-84
2024/04/01 03:46:01;;;;;;;19.40;10.77;;;8.90;99.90;;;;;;5123480;28;20369;-84
2024/04/01 03:48:28;;;;;;;19.85;11.73;;;8.80;99.90;;;;;;5133599;28;20090;-84
2024/04/01 03:50:55;;;;;;;17.38;10.68;;;8.80;99.90;;;;;;5129168;28;20407;-84
2024/04/01 03:53:21;;;;;;;22.65;11.82;;;9.10;99.90;;;;;;5129033;28;20030;-84
2024/04/01 03:55:48;;;;;;;23.15;11.60;;;8.90;99.90;;;;;;5124251;28;20084;-84
2024/04/01 03:58:15;;;;;;;24.92;13.05;;;8.80;99.90;;;;;;5129847;28;20063;-84
2024/04/01 04:00:42;;;;;;;20.83;11.57;;;8.80;99.90;;;;;;5125451;28;20075;-84
2024/04/01 04:03:09;;;;;;;19.20;11.70;;;8.70;99.90;;;;;;5133706;28;20047;-84
2024/04/01 04:05:36;;;;;;;19.20;11.52;;;8.70;99.90;;;;;;5125003;28;20035;-84
2024/04/01 04:08:03;;;;;;;17.80;11.55;;;8.70;99.90;;;;;;5133362;28;20411;-84
2024/04/01 04:10:31;;;;;;;19.08;12.25;;;8.70;99.90;;;;;;5144847;28;20039;-84
2024/04/01 04:12:57;;;;;;;22.35;12.07;;;8.70;99.90;;;;;;5125578;28;20114;-84
2024/04/01 04:15:24;;;;;;;23.10;12.50;;;8.60;99.90;;;;;;5133808;28;20460;-84
2024/04/01 04:17:51;;;;;;;21.60;12.48;;;9.00;99.90;;;;;;5127623;28;20037;-84
2024/04/01 04:20:18;;;;;;;20.90;12.88;;;8.70;99.90;;;;;;5122745;28;20035;-84
2024/04/01 04:22:47;;;;;;;23.75;12.75;;;8.60;99.90;;;;;;5133560;28;20067;-84
2024/04/01 04:25:14;;;;;;;22.25;13.25;;;8.70;99.90;;;;;;5115572;28;20039;-84
2024/04/01 04:27:41;;;;;;;21.58;12.15;;;8.80;99.90;;;;;;5128924;28;20042;-84
2024/04/01 04:30:12;;;;;;;27.50;13.10;;;8.70;99.90;;;;;;5133035;28;20059;-84
2024/04/01 04:32:40;;;;;;;21.10;12.02;;;8.60;99.90;;;;;;5129158;27;20031;-84
2024/04/01 04:35:13;;;;;;;21.02;12.50;;;8.70;99.90;;;;;;5136534;27;20547;-84
2024/04/01 04:37:40;;;;;;;19.50;12.45;;;8.70;99.90;;;;;;5137075;27;20488;-84
2024/04/01 04:40:10;;;;;;;19.98;12.32;;;8.60;99.90;;;;;;5133557;27;20040;-84
2024/04/01 04:42:36;;;;;;;22.52;12.98;;;8.70;99.90;;;;;;5150479;27;20043;-84
2024/04/01 04:45:04;;;;;;;22.75;12.55;;;8.80;99.90;;;;;;5130831;27;20027;-84
2024/04/01 04:47:30;;;;;;;22.45;13.10;;;8.60;99.90;;;;;;5134113;27;20035;-84
2024/04/01 04:49:57;;;;;;;20.83;13.07;;;8.70;99.90;;;;;;5123740;27;20509;-84
2024/04/01 04:52:23;;;;;;;21.35;12.98;;;8.70;99.90;;;;;;5131764;27;20080;-84
2024/04/01 04:54:50;;;;;;;21.98;12.45;;;9.30;99.90;;;;;;5153574;27;20484;-84
2024/04/01 04:57:17;;;;;;;21.25;14.73;;;9.40;99.90;;;;;;5137288;27;20087;-84
2024/04/01 04:59:43;;;;;;;26.35;14.05;;;8.70;99.90;;;;;;5129068;27;20031;-84
2024/04/01 05:02:10;;;;;;;29.05;14.52;;;8.80;99.90;;;;;;5136631;27;20824;-84
2024/04/01 05:04:37;;;;;;;24.73;14.50;;;8.70;99.90;;;;;;5132878;28;20044;-83
2024/04/01 05:07:04;;;;;;;20.80;14.00;;;8.80;99.90;;;;;;5121584;28;20035;-84
2024/04/01 05:09:30;;;;;;;21.88;14.02;;;8.80;99.90;;;;;;5141653;27;20039;-84
2024/04/01 05:11:57;;;;;;;21.40;14.90;;;8.80;99.90;;;;;;5135900;27;20038;-84
2024/04/01 05:14:24;;;;;;;25.98;15.07;;;9.10;99.90;;;;;;5132876;27;20031;-84
2024/04/01 05:16:52;;;;;;;23.80;14.68;;;8.80;99.90;;;;;;5135916;27;20057;-84
2024/04/01 05:19:20;;;;;;;22.63;14.65;;;8.80;99.90;;;;;;5128559;27;22361;-84
2024/04/01 05:21:48;;;;;;;26.90;14.18;;;8.80;99.90;;;;;;5122779;27;20044;-84
2024/04/01 05:24:15;;;;;;;21.42;14.57;;;8.80;99.90;;;;;;5136084;27;20474;-84
2024/04/01 05:26:43;;;;;;;25.13;15.18;;;8.90;99.90;;;;;;5136034;27;20071;-84
2024/04/01 05:29:09;;;;;;;23.80;15.63;;;8.80;99.90;;;;;;5135630;27;20058;-84
2024/04/01 05:31:37;;;;;;;26.60;15.40;;;8.90;99.90;;;;;;5131304;28;20044;-84
2024/04/01 05:34:03;;;;;;;21.75;15.20;;;9.50;99.90;;;;;;5127931;27;20031;-84
2024/04/01 05:36:31;;;;;;;23.92;15.70;;;8.90;99.90;;;;;;5126568;28;20032;-84
2024/04/01 05:38:59;;;;;;;26.67;16.77;;;9.20;99.90;;;;;;5135082;27;20035;-84
2024/04/01 05:41:26;;;;;;;32.75;17.48;;;9.00;99.90;;;;;;5132333;28;20066;-84
2024/04/01 05:43:54;;;;;;;30.98;15.95;;;8.90;99.90;;;;;;5118173;28;20043;-84
2024/04/01 05:46:20;;;;;;;26.13;16.27;;;9.00;99.90;;;;;;5129544;27;20390;-84
2024/04/01 05:48:47;;;;;;;29.75;17.00;;;8.90;99.90;;;;;;5148050;27;20122;-84
2024/04/01 05:51:14;;;;;;;28.80;17.20;;;9.10;99.90;;;;;;5131701;28;20031;-84
2024/04/01 05:53:41;;;;;;;30.70;16.15;;;9.20;99.90;;;;;;5151976;27;20058;-84
2024/04/01 05:56:07;;;;;;;27.95;17.02;;;9.00;99.90;;;;;;5147211;28;20118;-85
2024/04/01 05:58:35;;;;;;;35.20;16.80;;;9.00;99.90;;;;;;5129246;27;20122;-84
2024/04/01 06:01:02;;;;;;;25.30;16.20;;;9.10;99.90;;;;;;5134383;27;20072;-84
2024/04/01 06:03:29;;;;;;;26.50;16.05;;;9.10;99.90;;;;;;5129333;27;20039;-84
2024/04/01 06:05:56;;;;;;;26.33;16.98;;;9.20;99.90;;;;;;5122561;27;20042;-84
2024/04/01 06:08:22;;;;;;;25.60;16.38;;;9.20;99.90;;;;;;5135247;27;20109;-84
2024/04/01 06:10:49;;;;;;;24.77;17.08;;;9.20;99.90;;;;;;5129591;27;20043;-84
2024/04/01 06:13:16;;;;;;;22.55;15.80;;;9.30;99.90;;;;;;5134738;27;20027;-84
2024/04/01 06:15:43;;;;;;;26.08;15.98;;;9.30;99.90;;;;;;5133527;27;20043;-84
2024/04/01 06:18:10;;;;;;;23.10;15.45;;;9.30;99.90;;;;;;5127496;27;20031;-84
2024/04/01 06:20:37;;;;;;;26.52;15.80;;;9.30;99.90;;;;;;5131330;27;20088;-84
2024/04/01 06:23:07;;;;;;;29.15;16.60;;;9.60;99.90;;;;;;5134614;27;20039;-84
2024/04/01 06:25:42;;;;;;;23.80;16.40;;;9.30;99.90;;;;;;5148232;27;20039;-84
2024/04/01 06:28:09;;;;;;;;;;;9.70;99.90;;;;;;5122303;28;20039;-84
2024/04/01 06:30:36;;;;;;;26.60;16.30;;;9.40;99.90;;;;;;5126404;28;19998;-83
2024/04/01 06:33:02;;;;;;;30.23;18.00;;;9.50;99.90;;;;;;5131884;27;20035;-83
2024/04/01 06:35:29;;;;;;;26.20;17.23;;;9.50;99.90;;;;;;5121636;28;20088;-83
2024/04/01 06:37:56;;;;;;;30.27;18.08;;;9.60;99.90;;;;;;5134189;27;20049;-84
2024/04/01 06:40:22;;;;;;;29.95;19.83;;;9.50;99.90;;;;;;5131576;27;20119;-83
2024/04/01 06:42:49;;;;;;;27.73;19.38;;;9.50;99.90;;;;;;5124535;27;20099;-84
2024/04/01 06:45:16;;;;;;;28.85;19.98;;;9.50;99.90;;;;;;5127418;27;20039;-84
2024/04/01 06:47:45;;;;;;;31.77;20.15;;;9.60;99.90;;;;;;5155603;27;20724;-84
2024/04/01 06:50:12;;;;;;;32.15;20.58;;;9.60;99.90;;;;;;5148781;27;20035;-83
2024/04/01 06:52:38;;;;;;;35.08;20.92;;;9.60;99.90;;;;;;5130218;27;20452;-83
2024/04/01 06:55:05;;;;;;;32.10;22.13;;;9.70;99.90;;;;;;5135430;28;20043;-83
2024/04/01 06:57:32;;;;;;;31.63;21.08;;;9.70;99.90;;;;;;5126026;27;20069;-83
2024/04/01 06:59:59;;;;;;;33.78;22.58;;;9.70;99.90;;;;;;5121146;27;20046;-84
2024/04/01 07:02:26;;;;;;;34.53;23.17;;;9.80;99.90;;;;;;5134444;27;20035;-83
2024/04/01 07:04:52;;;;;;;34.88;21.27;;;9.80;99.90;;;;;;5128605;28;20055;-83
2024/04/01 07:07:19;;;;;;;34.63;21.38;;;9.80;99.90;;;;;;5127384;28;20412;-84
2024/04/01 07:09:46;;;;;;;31.45;19.65;;;9.80;99.90;;;;;;5143535;28;20028;-84
2024/04/01 07:12:13;;;;;;;30.70;19.00;;;10.30;99.90;;;;;;5127810;27;20035;-84
2024/04/01 07:14:39;;;;;;;31.52;19.80;;;10.20;99.90;;;;;;5132373;27;20080;-84
2024/04/01 07:17:06;;;;;;;31.65;20.33;;;10.00;99.90;;;;;;5146896;27;20500;-84
2024/04/01 07:19:33;;;;;;;29.10;19.50;;;10.00;99.90;;;;;;5126301;27;20039;-83
2024/04/01 07:21:59;;;;;;;31.45;19.40;;;10.10;99.90;;;;;;5126704;28;20035;-85
2024/04/01 07:24:26;;;;;;;31.08;19.77;;;10.50;99.90;;;;;;5144796;27;20043;-83
2024/04/01 07:26:53;;;;;;;28.50;19.35;;;10.20;99.90;;;;;;5128020;28;20415;-83
2024/04/01 07:29:19;;;;;;;28.25;19.08;;;10.20;99.90;;;;;;5115762;28;20415;-84
2024/04/01 07:31:46;;;;;;;28.85;17.80;;;10.20;99.90;;;;;;5113525;28;20036;-84
2024/04/01 07:34:13;;;;;;;28.13;19.33;;;10.50;99.90;;;;;;5105096;28;20028;-84
2024/04/01 07:36:39;;;;;;;30.08;19.08;;;10.30;99.90;;;;;;5119478;28;20040;-84
2024/04/01 07:39:06;;;;;;;28.00;18.73;;;10.40;99.90;;;;;;5101849;28;20469;-83
2024/04/01 07:41:33;;;;;;;29.10;18.45;;;10.40;99.90;;;;;;5125931;28;20040;-84
2024/04/01 07:44:00;;;;;;;24.20;17.88;;;10.40;99.90;;;;;;5128274;28;20050;-84
2024/04/01 07:46:26;;;;;;;29.35;18.10;;;10.40;99.90;;;;;;5117548;28;20052;-84
2024/04/01 07:48:53;;;;;;;27.65;17.77;;;10.50;99.90;;;;;;5109572;28;20473;-84
2024/04/01 07:51:20;;;;;;;24.98;17.20;;;10.50;99.90;;;;;;5120022;28;20051;-84
2024/04/01 07:53:46;;;;;;;29.27;18.45;;;10.40;99.90;;;;;;5108944;28;20063;-83
2024/04/01 07:56:13;;;;;;;27.42;17.60;;;10.60;99.90;;;;;;5107549;28;20503;-83
2024/04/01 07:58:39;;;;;;;25.83;16.95;;;10.50;99.90;;;;;;5121236;28;20097;-84
2024/04/01 08:01:08;;;;;;;26.20;16.60;;;10.50;99.90;;;;;;5112152;28;20097;-83
2024/04/01 08:03:35;;;;;;;26.10;16.67;;;10.60;99.90;;;;;;5099357;28;20540;-83
2024/04/01 08:06:02;;;;;;;26.63;15.90;;;10.50;99.90;;;;;;5110053;28;20107;-84
2024/04/01 08:08:29;;;;;;;26.40;17.08;;;10.50;99.90;;;;;;5117290;28;20066;-83
2024/04/01 08:10:56;;;;;;;29.42;16.60;;;10.50;99.90;;;;;;5118983;28;20136;-84
2024/04/01 08:13:22;;;;;;;26.90;16.10;;;10.50;99.90;;;;;;5135733;28;20039;-83
2024/04/01 08:16:03;;;;;;;28.52;17.05;;;10.40;99.90;;;;;;5113972;28;20047;-83
2024/04/01 08:18:30;;;;;;;25.40;16.08;;;10.40;99.90;;;;;;5108085;28;20040;-83
2024/04/01 08:20:58;;;;;;;23.88;14.45;;;10.70;99.90;;;;;;5127492;28;20573;-84
2024/04/01 08:23:25;;;;;;;21.92;15.07;;;10.40;99.90;;;;;;5109056;28;20047;-84
2024/04/01 08:25:52;;;;;;;23.23;16.05;;;10.60;99.90;;;;;;5113677;28;20404;-84
2024/04/01 08:28:19;;;;;;;26.73;16.33;;;10.40;99.90;;;;;;5140872;27;20043;-84
2024/04/01 08:30:46;;;;;;;24.95;17.13;;;10.40;99.90;;;;;;5131605;28;20400;-84
2024/04/01 08:33:12;;;;;;;26.20;16.92;;;10.40;99.90;;;;;;5133830;27;20507;-84
2024/04/01 08:35:40;;;;;;;27.08;16.20;;;10.40;99.90;;;;;;5136621;27;20183;-84
2024/04/01 08:38:06;;;;;;;23.98;16.08;;;10.40;99.90;;;;;;5136981;27;20031;-84
2024/04/01 08:40:59;;;;;;;23.67;15.55;;;10.30;99.90;;;;;;5136763;27;20049;-83
2024/04/01 08:43:40;;;;;;;24.05;15.57;;;10.40;99.90;;;;;;5155338;27;20089;-84
2024/04/01 08:46:08;;;;;;;26.13;15.90;;;10.50;99.90;;;;;;5133918;27;20413;-84
2024/04/01 08:48:35;;;;;;;24.85;15.82;;;10.30;99.90;;;;;;5146360;27;20411;-84
2024/04/01 08:51:04;;;;;;;26.00;16.83;;;10.30;99.90;;;;;;5124499;28;20036;-85
2024/04/01 08:53:49;;;;;;;23.13;16.02;;;10.30;99.90;;;;;;5124731;27;20116;-84
2024/04/01 08:56:18;;;;;;;25.27;16.45;;;10.20;99.90;;;;;;5150212;27;20039;-84
2024/04/01 08:58:48;;;;;;;24.85;16.67;;;10.30;99.90;;;;;;5149019;28;20504;-84
2024/04/01 09:01:14;;;;;;;22.65;15.68;;;10.30;99.90;;;;;;5162608;27;20027;-85
2024/04/01 09:03:41;;;;;;;27.50;16.35;;;10.20;99.90;;;;;;5136927;27;20066;-85
2024/04/01 09:06:08;;;;;;;23.30;15.18;;;10.20;99.90;;;;;;5136612;27;20053;-84
2024/04/01 09:08:34;;;;;;;21.67;15.25;;;10.20;99.90;;;;;;5133233;27;20039;-84
2024/04/01 09:11:01;;;;;;;24.15;15.48;;;10.20;99.90;;;;;;5127809;27;20479;-84
2024/04/01 09:13:30;;;;;;;23.52;15.73;;;10.30;99.90;;;;;;5136511;27;20622;-84
2024/04/01 09:15:58;;;;;;;25.92;15.60;;;10.20;99.90;;;;;;5130853;27;20081;-85
2024/04/01 09:18:25;;;;;;;27.13;16.15;;;10.20;99.90;;;;;;5121194;28;20090;-84
2024/04/01 09:20:56;;;;;;;23.13;15.73;;;10.20;99.90;;;;;;5139909;27;20067;-84
2024/04/01 09:23:23;;;;;;;25.35;16.67;;;10.10;99.90;;;;;;5135823;27;20111;-84
2024/04/01 09:25:53;;;;;;;23.95;16.52;;;10.20;99.90;;;;;;5134469;27;20043;-84
2024/04/01 09:28:20;;;;;;;23.33;15.50;;;10.20;99.90;;;;;;5136097;27;20071;-85
2024/04/01 09:30:47;;;;;;;25.77;17.80;;;10.20;99.90;;;;;;5130566;27;20530;-85
2024/04/01 09:33:13;;;;;;;28.33;18.85;;;10.20;99.90;;;;;;5129845;27;20563;-85
2024/04/01 09:35:41;;;;;;;33.53;22.45;;;10.20;99.90;;;;;;5135277;27;20039;-85
2024/04/01 09:38:08;;;;;;;29.35;20.77;;;10.20;99.90;;;;;;5152620;27;20039;-85
2024/04/01 09:40:35;;;;;;;32.03;21.05;;;10.20;99.90;;;;;;5143289;28;20054;-84
2024/04/01 09:43:01;;;;;;;32.05;21.27;;;10.20;99.90;;;;;;5125745;27;20047;-85
2024/04/01 09:45:29;;;;;;;29.67;19.33;;;10.20;99.90;;;;;;5129915;27;20046;-85
2024/04/01 09:47:56;;;;;;;31.17;20.40;;;10.30;99.90;;;;;;5134111;27;20050;-84
2024/04/01 09:50:25;;;;;;;24.83;17.00;;;10.20;99.90;;;;;;5133510;27;20058;-84
2024/04/01 09:52:51;;;;;;;23.83;17.15;;;10.30;99.90;;;;;;5123219;27;20039;-85
2024/04/01 09:55:22;;;;;;;24.65;17.13;;;10.40;99.90;;;;;;5119081;27;20032;-85
2024/04/01 09:58:26;;;;;;;28.25;17.58;;;10.30;99.90;;;;;;5134864;27;20035;-86
2024/04/01 10:01:10;;;;;;;26.48;17.48;;;10.30;99.90;;;;;;5130051;27;20043;-85
2024/04/01 10:03:56;;;;;;;23.33;17.10;;;10.40;99.90;;;;;;5125132;27;20047;-84
2024/04/01 10:06:53;;;;;;;27.30;18.23;;;10.80;99.90;;;;;;5152607;27;20105;-86
2024/04/01 10:09:57;;;;;;;28.02;18.00;;;10.30;99.90;;;;;;5133540;27;20139;-85
2024/04/01 10:12:46;;;;;;;25.88;16.83;;;10.40;99.90;;;;;;5132107;27;20027;-85
2024/04/01 10:15:38;;;;;;;27.13;17.35;;;10.30;99.90;;;;;;5128725;27;20067;-85
2024/04/01 10:18:34;;;;;;;24.60;17.13;;;10.40;99.90;;;;;;5135160;27;20038;-85
2024/04/01 10:21:10;;;;;;;26.35;17.63;;;10.40;99.90;;;;;;5135467;27;20045;-85
2024/04/01 10:24:04;;;;;;;27.13;18.00;;;10.40;99.90;;;;;;5135220;27;20049;-86
2024/04/01 10:27:00;;;;;;;30.15;16.92;;;10.30;99.90;;;;;;5129286;27;20518;-85
2024/04/01 10:29:44;;;;;;;25.52;17.27;;;10.30;99.90;;;;;;5133722;27;20122;-85
2024/04/01 10:32:33;;;;;;;25.55;16.98;;;10.30;99.90;;;;;;5144346;28;20036;-86
2024/04/01 10:35:09;;;;;;;25.40;17.83;;;10.30;99.90;;;;;;5126720;27;20058;-85
2024/04/01 10:38:14;;;;;;;25.50;17.58;;;10.30;99.90;;;;;;5125421;27;20024;-85
2024/04/01 10:41:03;;;;;;;27.25;18.95;;;10.40;99.90;;;;;;5120168;28;20476;-85
2024/04/01 10:44:06;;;;;;;28.27;18.60;;;10.40;99.90;;;;;;5118197;27;20492;-85
2024/04/01 10:47:08;;;;;;;28.58;18.95;;;10.40;99.90;;;;;;5134408;27;20050;-85
2024/04/01 10:50:02;;;;;;;30.92;19.73;;;10.50;99.90;;;;;;5122470;27;20042;-85
2024/04/01 10:52:47;;;;;;;26.10;18.77;;;10.60;99.90;;;;;;5133871;27;20031;-85
2024/04/01 10:55:35;;;;;;;28.60;19.03;;;10.60;99.90;;;;;;5149284;27;20043;-85
2024/04/01 10:58:32;;;;;;;27.02;18.33;;;10.60;99.90;;;;;;5149042;27;20042;-84
2024/04/01 11:01:37;;;;;;;26.25;18.45;;;10.70;99.90;;;;;;5133905;27;20093;-85
2024/04/01 11:06:59;;;;;;;26.08;18.77;;;10.60;99.90;;;;;;5452691;23;20053;-85
2024/04/01 11:10:09;;;;;;;29.17;18.83;;;10.60;99.90;;;;;;5039234;28;20042;-85
2024/04/01 11:12:42;;;;;;;31.20;20.70;;;10.60;99.90;;;;;;5028235;28;20069;-84
2024/04/01 11:15:09;;;;;;;28.00;20.42;;;10.70;99.90;;;;;;5043264;28;20042;-84
2024/04/01 11:17:38;;;;;;;28.98;20.30;;;10.70;99.90;;;;;;5013597;28;20508;-84
2024/04/01 11:20:26;;;;;;;29.27;20.42;;;10.70;99.90;;;;;;5023403;28;20104;-84
2024/04/01 11:23:10;;;;;;;35.20;22.33;;;10.80;99.90;;;;;;5013864;28;20045;-84
2024/04/01 11:25:53;;;;;;;30.00;22.08;;;10.80;99.90;;;;;;5017187;28;20450;-84
2024/04/01 11:28:38;;;;;;;29.73;21.02;;;10.90;99.90;;;;;;5043872;28;20109;-84
2024/04/01 11:31:16;;;;;;;33.47;22.73;;;10.90;99.90;;;;;;5034245;28;20510;-84
2024/04/01 11:33:54;;;;;;;34.28;24.40;;;11.00;99.90;;;;;;5026427;28;20716;-84
2024/04/01 11:36:30;;;;;;;32.20;22.73;;;11.00;99.90;;;;;;5037999;28;20073;-84
2024/04/01 11:39:09;;;;;;;33.28;23.88;;;11.00;99.90;;;;;;5023305;28;20042;-84
2024/04/01 11:41:41;;;;;;;33.05;23.50;;;11.00;99.90;;;;;;5026869;28;20038;-83
2024/04/01 11:44:09;;;;;;;30.10;21.83;;;11.00;99.90;;;;;;5023215;28;20042;-84
2024/04/01 11:46:38;;;;;;;29.95;21.77;;;11.00;99.90;;;;;;5013677;28;20070;-83
2024/04/01 11:49:05;;;;;;;32.90;21.13;;;11.00;99.90;;;;;;5019914;28;20049;-84
2024/04/01 11:51:33;;;;;;;26.67;20.45;;;11.10;99.90;;;;;;5029821;28;20034;-83
2024/04/01 11:54:01;;;;;;;32.08;21.77;;;11.10;99.90;;;;;;5027571;28;20088;-84
2024/04/01 11:56:38;;;;;;;29.48;20.23;;;11.20;99.90;;;;;;5031169;28;20041;-84
2024/04/01 11:59:09;;;;;;;31.58;20.92;;;11.20;99.90;;;;;;5015348;28;20045;-84
2024/04/01 12:01:38;;;;;;;33.70;21.83;;;11.30;99.90;;;;;;5024445;28;20116;-83
2024/04/01 12:04:05;;;;;;;33.63;21.33;;;11.40;99.90;;;;;;5025709;28;20037;-83
2024/04/01 12:06:34;;;;;;;33.03;21.88;;;11.50;99.90;;;;;;5041640;28;20100;-83
2024/04/01 12:09:07;;;;;;;30.52;21.67;;;11.50;99.90;;;;;;5031956;28;20046;-83
2024/04/01 12:11:34;;;;;;;34.20;21.83;;;11.60;99.90;;;;;;5045892;28;20395;-83
2024/04/01 12:14:03;;;;;;;35.47;22.52;;;11.60;99.90;;;;;;5029704;28;20041;-83
2024/04/01 12:16:33;;;;;;;31.95;21.58;;;11.70;99.90;;;;;;5034208;28;20125;-83
2024/04/01 12:19:02;;;;;;;32.63;21.08;;;11.80;99.90;;;;;;5033758;28;20038;-84
2024/04/01 12:21:31;;;;;;;31.45;22.02;;;11.70;99.90;;;;;;5039693;28;20042;-84
2024/04/01 12:23:57;;;;;;;28.80;20.83;;;11.70;99.90;;;;;;5041841;28;20083;-83
2024/04/01 12:26:34;;;;;;;34.38;21.85;;;11.70;99.90;;;;;;5045116;28;20041;-84
2024/04/01 12:29:01;;;;;;;33.85;21.95;;;11.70;99.90;;;;;;5049430;28;20069;-85
2024/04/01 12:31:29;;;;;;;29.50;20.45;;;11.80;99.90;;;;;;5043922;28;20068;-85
2024/04/01 12:33:56;;;;;;;29.88;20.08;;;11.80;99.90;;;;;;5032054;28;20048;-84
2024/04/01 12:36:27;;;;;;;31.27;21.15;;;11.90;99.90;;;;;;5029300;28;20049;-83
2024/04/01 12:38:57;;;;;;;30.83;20.63;;;12.00;99.90;;;;;;5040290;28;20033;-83
2024/04/01 12:41:27;;;;;;;33.53;21.27;;;11.90;99.90;;;;;;5031958;28;20034;-84
2024/04/01 12:43:55;;;;;;;32.00;20.58;;;11.80;99.90;;;;;;5029373;28;20860;-83
2024/04/01 12:46:26;;;;;;;29.70;20.58;;;11.70;99.90;;;;;;5049972;28;20030;-84
2024/04/01 12:48:56;;;;;;;28.08;19.17;;;11.70;99.90;;;;;;5035264;28;20034;-84
2024/04/01 12:51:26;;;;;;;29.27;18.88;;;11.70;99.90;;;;;;5030019;28;20291;-84
2024/04/01 12:53:56;;;;;;;22.08;16.35;;;11.70;99.90;;;;;;5031025;28;20112;-84